sensor_id;sensor_type;location;lat;lon;timestamp;temperature;humidity
6468;DHT22;3267;48.794;9.928;2023-07-29T04:01:19;20.50;70.50
6468;DHT22;3267;48.794;9.928;2023-07-29T04:03:45;20.50;72.70
6468;DHT22;3267;48.794;9.928;2023-07-29T04:06:14;20.60;73.00
6468;DHT22;3267;48.794;9.928;2023-07-29T04:08:39;20.50;72.80
6468;DHT22;3267;48.794;9.928;2023-07-29T04:11:07;20.70;73.00
6468;DHT22;3267;48.794;9.928;2023-07-29T04:13:32;20.60;72.40
6468;DHT22;3267;48.794;9.928;2023-07-29T04:15:58;20.60;72.30
6468;DHT22;3267;48.794;9.928;2023-07-29T04:18:25;20.60;72.30
6468;DHT22;3267;48.794;9.928;2023-07-29T04:20:50;20.70;71.60
6468;DHT22;3267;48.794;9.928;2023-07-29T04:23:16;20.80;72.10
6468;DHT22;3267;48.794;9.928;2023-07-29T04:25:41;21.40;72.30
6468;DHT22;3267;48.794;9.928;2023-07-29T04:28:07;21.00;71.70
6468;DHT22;3267;48.794;9.928;2023-07-29T04:30:32;20.80;72.40
6468;DHT22;3267;48.794;9.928;2023-07-29T04:32:58;20.80;73.20
6468;DHT22;3267;48.794;9.928;2023-07-29T04:35:24;20.80;72.80
6468;DHT22;3267;48.794;9.928;2023-07-29T04:37:49;20.80;74.00
6468;DHT22;3267;48.794;9.928;2023-07-29T04:40:15;20.90;73.50
6468;DHT22;3267;48.794;9.928;2023-07-29T04:42:40;20.80;74.30
6468;DHT22;3267;48.794;9.928;2023-07-29T04:45:08;21.80;75.70
6468;DHT22;3267;48.794;9.928;2023-07-29T04:47:33;20.70;74.60
6468;DHT22;3267;48.794;9.928;2023-07-29T04:49:59;20.70;74.70
6468;DHT22;3267;48.794;9.928;2023-07-29T04:52:24;20.80;74.90
6468;DHT22;3267;48.794;9.928;2023-07-29T04:54:50;20.70;75.00
6468;DHT22;3267;48.794;9.928;2023-07-29T04:57:16;20.90;74.70
6468;DHT22;3267;48.794;9.928;2023-07-29T04:59:42;20.70;75.70
6468;DHT22;3267;48.794;9.928;2023-07-29T05:02:07;20.80;74.60
6468;DHT22;3267;48.794;9.928;2023-07-29T05:04:33;23.00;77.00
6468;DHT22;3267;48.794;9.928;2023-07-29T05:06:59;20.60;75.20
6468;DHT22;3267;48.794;9.928;2023-07-29T05:09:24;20.70;76.30
6468;DHT22;3267;48.794;9.928;2023-07-29T05:11:50;21.00;75.50
6468;DHT22;3267;48.794;9.928;2023-07-29T05:14:17;21.00;74.50
6468;DHT22;3267;48.794;9.928;2023-07-29T05:16:43;20.80;75.30
6468;DHT22;3267;48.794;9.928;2023-07-29T05:19:09;20.90;73.80
6468;DHT22;3267;48.794;9.928;2023-07-29T05:21:36;21.40;74.50
6468;DHT22;3267;48.794;9.928;2023-07-29T05:24:04;20.90;73.80
6468;DHT22;3267;48.794;9.928;2023-07-29T05:26:30;21.00;74.10
6468;DHT22;3267;48.794;9.928;2023-07-29T05:28:55;21.00;75.60
6468;DHT22;3267;48.794;9.928;2023-07-29T05:31:22;21.00;75.90
6468;DHT22;3267;48.794;9.928;2023-07-29T05:33:48;20.90;76.50
6468;DHT22;3267;48.794;9.928;2023-07-29T05:36:14;21.00;76.80
6468;DHT22;3267;48.794;9.928;2023-07-29T05:38:41;20.90;76.20
6468;DHT22;3267;48.794;9.928;2023-07-29T05:41:07;21.80;76.40
6468;DHT22;3267;48.794;9.928;2023-07-29T05:43:32;20.80;75.70
6468;DHT22;3267;48.794;9.928;2023-07-29T05:45:58;20.80;75.40
6468;DHT22;3267;48.794;9.928;2023-07-29T05:48:23;21.40;76.90
6468;DHT22;3267;48.794;9.928;2023-07-29T05:50:49;20.70;77.30
6468;DHT22;3267;48.794;9.928;2023-07-29T05:53:15;20.80;75.80
6468;DHT22;3267;48.794;9.928;2023-07-29T05:55:41;20.70;75.50
6468;DHT22;3267;48.794;9.928;2023-07-29T05:58:06;20.80;75.80
6468;DHT22;3267;48.794;9.928;2023-07-29T06:00:32;20.80;75.90
6468;DHT22;3267;48.794;9.928;2023-07-29T06:02:58;21.90;76.90
6468;DHT22;3267;48.794;9.928;2023-07-29T06:05:24;21.30;75.80
6468;DHT22;3267;48.794;9.928;2023-07-29T06:07:49;20.80;75.60
6468;DHT22;3267;48.794;9.928;2023-07-29T06:10:15;21.00;77.80
6468;DHT22;3267;48.794;9.928;2023-07-29T06:12:45;21.80;78.30
6468;DHT22;3267;48.794;9.928;2023-07-29T06:15:11;21.60;77.40
6468;DHT22;3267;48.794;9.928;2023-07-29T06:17:38;20.90;76.20
6468;DHT22;3267;48.794;9.928;2023-07-29T06:20:04;21.10;75.70
6468;DHT22;3267;48.794;9.928;2023-07-29T06:22:29;20.90;75.00
6468;DHT22;3267;48.794;9.928;2023-07-29T06:24:55;21.60;74.80
6468;DHT22;3267;48.794;9.928;2023-07-29T06:27:21;21.00;77.70
6468;DHT22;3267;48.794;9.928;2023-07-29T06:29:46;21.00;76.60
6468;DHT22;3267;48.794;9.928;2023-07-29T06:32:12;21.00;78.20
6468;DHT22;3267;48.794;9.928;2023-07-29T06:34:37;21.00;79.50
6468;DHT22;3267;48.794;9.928;2023-07-29T06:37:03;21.00;78.60
6468;DHT22;3267;48.794;9.928;2023-07-29T06:39:29;21.00;78.60
6468;DHT22;3267;48.794;9.928;2023-07-29T06:41:55;21.10;76.90
6468;DHT22;3267;48.794;9.928;2023-07-29T06:44:20;21.30;75.60
6468;DHT22;3267;48.794;9.928;2023-07-29T06:46:47;21.60;77.20
6468;DHT22;3267;48.794;9.928;2023-07-29T06:49:12;21.50;75.50
6468;DHT22;3267;48.794;9.928;2023-07-29T06:51:38;21.50;77.00
6468;DHT22;3267;48.794;9.928;2023-07-29T06:54:03;21.70;76.30
6468;DHT22;3267;48.794;9.928;2023-07-29T06:56:29;21.80;75.10
6468;DHT22;3267;48.794;9.928;2023-07-29T06:58:55;22.20;77.80
6468;DHT22;3267;48.794;9.928;2023-07-29T07:01:21;22.30;75.80
6468;DHT22;3267;48.794;9.928;2023-07-29T07:03:47;22.10;75.20
6468;DHT22;3267;48.794;9.928;2023-07-29T07:06:12;22.10;74.70
6468;DHT22;3267;48.794;9.928;2023-07-29T07:08:38;22.20;74.80
6468;DHT22;3267;48.794;9.928;2023-07-29T07:11:04;22.40;74.40
6468;DHT22;3267;48.794;9.928;2023-07-29T07:13:29;22.40;74.70
6468;DHT22;3267;48.794;9.928;2023-07-29T07:15:56;22.30;75.10
6468;DHT22;3267;48.794;9.928;2023-07-29T07:18:22;22.40;74.80
6468;DHT22;3267;48.794;9.928;2023-07-29T07:20:52;22.40;74.50
6468;DHT22;3267;48.794;9.928;2023-07-29T07:23:18;22.60;74.60
6468;DHT22;3267;48.794;9.928;2023-07-29T07:25:44;22.50;74.50
6468;DHT22;3267;48.794;9.928;2023-07-29T07:28:10;22.70;75.30
6468;DHT22;3267;48.794;9.928;2023-07-29T07:30:40;22.90;75.30
6468;DHT22;3267;48.794;9.928;2023-07-29T07:33:09;22.80;74.70
6468;DHT22;3267;48.794;9.928;2023-07-29T07:35:35;22.70;75.40
6468;DHT22;3267;48.794;9.928;2023-07-29T07:38:00;22.70;74.40
6468;DHT22;3267;48.794;9.928;2023-07-29T07:40:31;22.70;74.00
6468;DHT22;3267;48.794;9.928;2023-07-29T07:42:57;22.70;74.90
6468;DHT22;3267;48.794;9.928;2023-07-29T07:45:22;22.70;74.00
6468;DHT22;3267;48.794;9.928;2023-07-29T07:47:48;22.90;74.70
6468;DHT22;3267;48.794;9.928;2023-07-29T07:50:14;22.50;74.60
6468;DHT22;3267;48.794;9.928;2023-07-29T07:52:42;22.40;74.60
6468;DHT22;3267;48.794;9.928;2023-07-29T07:55:08;22.60;78.60
6468;DHT22;3267;48.794;9.928;2023-07-29T07:57:34;22.80;76.10
6468;DHT22;3267;48.794;9.928;2023-07-29T07:59:59;22.60;75.80
6468;DHT22;3267;48.794;9.928;2023-07-29T08:02:25;22.50;75.70
6468;DHT22;3267;48.794;9.928;2023-07-29T08:04:50;23.30;78.10
6468;DHT22;3267;48.794;9.928;2023-07-29T08:07:16;22.70;78.50
6468;DHT22;3267;48.794;9.928;2023-07-29T08:09:42;22.70;75.90
6468;DHT22;3267;48.794;9.928;2023-07-29T08:12:07;22.40;75.50
6468;DHT22;3267;48.794;9.928;2023-07-29T08:14:33;22.10;75.30
6468;DHT22;3267;48.794;9.928;2023-07-29T08:16:59;22.50;79.30
6468;DHT22;3267;48.794;9.928;2023-07-29T08:19:24;22.60;76.70
6468;DHT22;3267;48.794;9.928;2023-07-29T08:21:50;22.50;75.90
6468;DHT22;3267;48.794;9.928;2023-07-29T08:24:16;22.30;75.50
6468;DHT22;3267;48.794;9.928;2023-07-29T08:26:41;22.30;76.80
6468;DHT22;3267;48.794;9.928;2023-07-29T08:29:07;22.40;75.80
6468;DHT22;3267;48.794;9.928;2023-07-29T08:31:32;22.40;76.00
6468;DHT22;3267;48.794;9.928;2023-07-29T08:34:00;22.40;78.10
6468;DHT22;3267;48.794;9.928;2023-07-29T08:36:26;22.70;77.40
6468;DHT22;3267;48.794;9.928;2023-07-29T08:38:54;22.50;75.70
6468;DHT22;3267;48.794;9.928;2023-07-29T08:41:25;22.80;77.30
6468;DHT22;3267;48.794;9.928;2023-07-29T08:46:29;22.80;75.80
6468;DHT22;3267;48.794;9.928;2023-07-29T08:48:55;22.70;75.70
6468;DHT22;3267;48.794;9.928;2023-07-29T08:51:21;22.60;75.80
6468;DHT22;3267;48.794;9.928;2023-07-29T08:53:49;22.50;75.60
6468;DHT22;3267;48.794;9.928;2023-07-29T08:56:15;22.50;75.90
6468;DHT22;3267;48.794;9.928;2023-07-29T08:58:41;22.40;75.70
6468;DHT22;3267;48.794;9.928;2023-07-29T09:01:07;22.50;75.60
6468;DHT22;3267;48.794;9.928;2023-07-29T09:03:33;22.50;76.20
6468;DHT22;3267;48.794;9.928;2023-07-29T09:05:58;23.50;76.50
6468;DHT22;3267;48.794;9.928;2023-07-29T09:08:26;23.60;77.10
6468;DHT22;3267;48.794;9.928;2023-07-29T09:10:52;22.90;75.60
6468;DHT22;3267;48.794;9.928;2023-07-29T09:13:19;23.00;75.50
6468;DHT22;3267;48.794;9.928;2023-07-29T09:15:45;23.80;76.20
6468;DHT22;3267;48.794;9.928;2023-07-29T09:18:14;24.20;77.20
6468;DHT22;3267;48.794;9.928;2023-07-29T09:20:42;23.20;76.40
6468;DHT22;3267;48.794;9.928;2023-07-29T09:23:11;23.40;75.60
6468;DHT22;3267;48.794;9.928;2023-07-29T09:25:37;23.40;75.20
6468;DHT22;3267;48.794;9.928;2023-07-29T09:28:09;23.40;74.90
6468;DHT22;3267;48.794;9.928;2023-07-29T09:30:35;23.80;77.70
6468;DHT22;3267;48.794;9.928;2023-07-29T09:33:00;24.20;78.20
6468;DHT22;3267;48.794;9.928;2023-07-29T09:35:29;24.10;78.00
6468;DHT22;3267;48.794;9.928;2023-07-29T09:37:55;24.10;77.30
6468;DHT22;3267;48.794;9.928;2023-07-29T09:40:21;25.10;77.00
6468;DHT22;3267;48.794;9.928;2023-07-29T09:42:54;24.10;75.80
6468;DHT22;3267;48.794;9.928;2023-07-29T09:45:24;24.10;75.70
6468;DHT22;3267;48.794;9.928;2023-07-29T09:47:51;24.10;75.80
6468;DHT22;3267;48.794;9.928;2023-07-29T09:50:17;23.90;75.60
6468;DHT22;3267;48.794;9.928;2023-07-29T09:52:43;24.00;75.90
6468;DHT22;3267;48.794;9.928;2023-07-29T09:55:12;25.40;77.10
6468;DHT22;3267;48.794;9.928;2023-07-29T09:57:40;24.10;76.40
6468;DHT22;3267;48.794;9.928;2023-07-29T10:00:11;24.10;75.90
6468;DHT22;3267;48.794;9.928;2023-07-29T10:02:41;24.60;77.20
6468;DHT22;3267;48.794;9.928;2023-07-29T10:05:08;24.30;76.50
6468;DHT22;3267;48.794;9.928;2023-07-29T10:07:38;24.40;76.00
6468;DHT22;3267;48.794;9.928;2023-07-29T10:10:05;24.50;76.40
6468;DHT22;3267;48.794;9.928;2023-07-29T10:12:32;24.60;75.50
6468;DHT22;3267;48.794;9.928;2023-07-29T10:15:04;24.80;75.10
6468;DHT22;3267;48.794;9.928;2023-07-29T10:17:38;24.90;74.90
6468;DHT22;3267;48.794;9.928;2023-07-29T10:20:06;25.00;75.30
6468;DHT22;3267;48.794;9.928;2023-07-29T10:22:43;25.10;75.30
6468;DHT22;3267;48.794;9.928;2023-07-29T10:25:16;25.20;75.10
6468;DHT22;3267;48.794;9.928;2023-07-29T10:27:47;25.40;75.00
6468;DHT22;3267;48.794;9.928;2023-07-29T10:30:13;25.40;75.10
6468;DHT22;3267;48.794;9.928;2023-07-29T10:32:43;26.20;75.50
6468;DHT22;3267;48.794;9.928;2023-07-29T10:35:13;25.60;74.30
6468;DHT22;3267;48.794;9.928;2023-07-29T10:37:39;25.70;73.80
6468;DHT22;3267;48.794;9.928;2023-07-29T10:40:07;25.80;74.20
6468;DHT22;3267;48.794;9.928;2023-07-29T10:42:33;25.80;73.60
6468;DHT22;3267;48.794;9.928;2023-07-29T10:44:58;26.90;74.70
6468;DHT22;3267;48.794;9.928;2023-07-29T10:47:26;26.10;73.80
6468;DHT22;3267;48.794;9.928;2023-07-29T10:49:54;26.20;73.70
6468;DHT22;3267;48.794;9.928;2023-07-29T10:55:03;26.40;73.20
6468;DHT22;3267;48.794;9.928;2023-07-29T10:57:34;26.60;72.30
6468;DHT22;3267;48.794;9.928;2023-07-29T11:00:00;27.70;73.70
6468;DHT22;3267;48.794;9.928;2023-07-29T11:02:35;26.70;73.20
6468;DHT22;3267;48.794;9.928;2023-07-29T11:05:16;26.70;72.50
6468;DHT22;3267;48.794;9.928;2023-07-29T11:07:48;26.90;72.70
6468;DHT22;3267;48.794;9.928;2023-07-29T11:10:17;26.90;72.10
6468;DHT22;3267;48.794;9.928;2023-07-29T11:12:50;27.10;72.70
6468;DHT22;3267;48.794;9.928;2023-07-29T11:15:20;27.20;72.60
6468;DHT22;3267;48.794;9.928;2023-07-29T11:17:53;28.80;71.60
6468;DHT22;3267;48.794;9.928;2023-07-29T11:20:23;26.70;68.60
6468;DHT22;3267;48.794;9.928;2023-07-29T11:22:50;26.60;68.50
6468;DHT22;3267;48.794;9.928;2023-07-29T11:25:18;26.30;69.10
6468;DHT22;3267;48.794;9.928;2023-07-29T11:27:45;26.00;69.70
6468;DHT22;3267;48.794;9.928;2023-07-29T11:30:14;25.90;70.20
6468;DHT22;3267;48.794;9.928;2023-07-29T11:32:42;25.70;70.60
6468;DHT22;3267;48.794;9.928;2023-07-29T11:35:15;25.60;70.90
6468;DHT22;3267;48.794;9.928;2023-07-29T11:37:46;25.50;71.00
6468;DHT22;3267;48.794;9.928;2023-07-29T11:40:21;25.40;71.30
6468;DHT22;3267;48.794;9.928;2023-07-29T11:42:47;25.40;71.60
6468;DHT22;3267;48.794;9.928;2023-07-29T11:45:14;25.30;71.50
6468;DHT22;3267;48.794;9.928;2023-07-29T11:47:40;25.30;70.70
6468;DHT22;3267;48.794;9.928;2023-07-29T11:50:08;25.40;71.60
6468;DHT22;3267;48.794;9.928;2023-07-29T11:52:36;25.40;71.50
6468;DHT22;3267;48.794;9.928;2023-07-29T11:55:04;26.00;71.60
6468;DHT22;3267;48.794;9.928;2023-07-29T11:57:32;25.90;72.10
6468;DHT22;3267;48.794;9.928;2023-07-29T11:59:59;26.00;71.80
6468;DHT22;3267;48.794;9.928;2023-07-29T12:02:25;26.20;71.50
6468;DHT22;3267;48.794;9.928;2023-07-29T12:04:51;26.50;70.90
6468;DHT22;3267;48.794;9.928;2023-07-29T12:07:18;26.60;70.70
6468;DHT22;3267;48.794;9.928;2023-07-29T12:09:45;26.70;70.60
6468;DHT22;3267;48.794;9.928;2023-07-29T12:17:05;26.90;70.40
6468;DHT22;3267;48.794;9.928;2023-07-29T12:19:38;26.90;70.60
6468;DHT22;3267;48.794;9.928;2023-07-29T12:22:09;26.90;70.20
6468;DHT22;3267;48.794;9.928;2023-07-29T12:24:39;27.00;70.40
6468;DHT22;3267;48.794;9.928;2023-07-29T12:27:05;27.10;69.70
6468;DHT22;3267;48.794;9.928;2023-07-29T12:29:32;27.10;70.70
6468;DHT22;3267;48.794;9.928;2023-07-29T12:32:03;27.10;70.00
6468;DHT22;3267;48.794;9.928;2023-07-29T12:34:30;27.20;69.90
6468;DHT22;3267;48.794;9.928;2023-07-29T12:36:57;27.30;70.10
6468;DHT22;3267;48.794;9.928;2023-07-29T12:39:25;27.50;70.30
6468;DHT22;3267;48.794;9.928;2023-07-29T12:41:52;27.50;70.30
6468;DHT22;3267;48.794;9.928;2023-07-29T12:44:19;27.50;70.00
6468;DHT22;3267;48.794;9.928;2023-07-29T12:46:46;27.60;69.80
6468;DHT22;3267;48.794;9.928;2023-07-29T12:49:12;27.60;70.00
6468;DHT22;3267;48.794;9.928;2023-07-29T12:51:38;27.70;69.70
6468;DHT22;3267;48.794;9.928;2023-07-29T12:54:04;27.90;69.70
6468;DHT22;3267;48.794;9.928;2023-07-29T12:56:31;28.00;69.60
6468;DHT22;3267;48.794;9.928;2023-07-29T12:58:57;28.10;69.10
6468;DHT22;3267;48.794;9.928;2023-07-29T13:01:25;28.20;69.00
6468;DHT22;3267;48.794;9.928;2023-07-29T13:03:52;28.30;69.00
6468;DHT22;3267;48.794;9.928;2023-07-29T13:06:18;28.30;69.00
6468;DHT22;3267;48.794;9.928;2023-07-29T13:08:44;28.40;68.90
6468;DHT22;3267;48.794;9.928;2023-07-29T13:11:11;28.40;68.70
6468;DHT22;3267;48.794;9.928;2023-07-29T13:13:37;28.40;69.00
6468;DHT22;3267;48.794;9.928;2023-07-29T13:16:04;28.40;69.30
6468;DHT22;3267;48.794;9.928;2023-07-29T13:18:29;28.30;69.20
6468;DHT22;3267;48.794;9.928;2023-07-29T13:20:55;28.40;69.50
6468;DHT22;3267;48.794;9.928;2023-07-29T13:23:21;28.40;69.40
6468;DHT22;3267;48.794;9.928;2023-07-29T13:25:47;28.30;69.00
6468;DHT22;3267;48.794;9.928;2023-07-29T13:28:14;28.20;68.70
6468;DHT22;3267;48.794;9.928;2023-07-29T13:30:40;28.20;69.00
6468;DHT22;3267;48.794;9.928;2023-07-29T13:33:06;28.30;69.30
6468;DHT22;3267;48.794;9.928;2023-07-29T13:35:32;28.20;69.40
6468;DHT22;3267;48.794;9.928;2023-07-29T13:37:58;28.30;69.50
6468;DHT22;3267;48.794;9.928;2023-07-29T13:40:24;28.30;69.40
6468;DHT22;3267;48.794;9.928;2023-07-29T13:42:50;28.50;69.50
6468;DHT22;3267;48.794;9.928;2023-07-29T13:45:16;29.00;69.60
6468;DHT22;3267;48.794;9.928;2023-07-29T13:47:42;29.00;70.40
6468;DHT22;3267;48.794;9.928;2023-07-29T13:50:08;29.30;69.60
6468;DHT22;3267;48.794;9.928;2023-07-29T13:52:36;29.60;68.90
6468;DHT22;3267;48.794;9.928;2023-07-29T13:55:03;30.00;68.20
6468;DHT22;3267;48.794;9.928;2023-07-29T13:57:31;30.40;67.80
6468;DHT22;3267;48.794;9.928;2023-07-29T13:59:57;30.70;66.50
6468;DHT22;3267;48.794;9.928;2023-07-29T14:02:23;30.90;65.70
6468;DHT22;3267;48.794;9.928;2023-07-29T14:04:51;30.90;65.40
6468;DHT22;3267;48.794;9.928;2023-07-29T14:07:24;31.00;65.30
6468;DHT22;3267;48.794;9.928;2023-07-29T14:09:51;30.90;64.50
6468;DHT22;3267;48.794;9.928;2023-07-29T14:12:16;30.80;64.70
6468;DHT22;3267;48.794;9.928;2023-07-29T14:14:43;30.70;64.80
6468;DHT22;3267;48.794;9.928;2023-07-29T14:17:09;30.60;64.90
6468;DHT22;3267;48.794;9.928;2023-07-29T14:19:36;30.50;65.50
6468;DHT22;3267;48.794;9.928;2023-07-29T14:22:02;30.50;65.70
6468;DHT22;3267;48.794;9.928;2023-07-29T14:24:28;30.50;65.00
6468;DHT22;3267;48.794;9.928;2023-07-29T14:26:55;30.40;65.30
6468;DHT22;3267;48.794;9.928;2023-07-29T14:29:21;30.30;64.60
6468;DHT22;3267;48.794;9.928;2023-07-29T14:31:46;30.20;64.90
6468;DHT22;3267;48.794;9.928;2023-07-29T14:34:13;30.10;64.80
6468;DHT22;3267;48.794;9.928;2023-07-29T14:36:38;30.00;64.50
6468;DHT22;3267;48.794;9.928;2023-07-29T14:39:04;30.00;64.70
6468;DHT22;3267;48.794;9.928;2023-07-29T14:41:30;29.90;63.70
6468;DHT22;3267;48.794;9.928;2023-07-29T14:43:56;30.10;64.00
6468;DHT22;3267;48.794;9.928;2023-07-29T14:46:21;30.20;64.50
6468;DHT22;3267;48.794;9.928;2023-07-29T14:48:47;30.30;64.30
6468;DHT22;3267;48.794;9.928;2023-07-29T14:51:13;30.30;63.70
6468;DHT22;3267;48.794;9.928;2023-07-29T14:53:39;30.30;63.50
6468;DHT22;3267;48.794;9.928;2023-07-29T14:56:05;30.30;63.50
6468;DHT22;3267;48.794;9.928;2023-07-29T14:58:31;30.30;63.10
6468;DHT22;3267;48.794;9.928;2023-07-29T15:00:57;30.40;63.70
6468;DHT22;3267;48.794;9.928;2023-07-29T15:03:24;30.40;63.50
6468;DHT22;3267;48.794;9.928;2023-07-29T15:05:49;30.40;62.10
6468;DHT22;3267;48.794;9.928;2023-07-29T15:08:15;30.30;62.70
6468;DHT22;3267;48.794;9.928;2023-07-29T15:10:44;30.40;62.40
6468;DHT22;3267;48.794;9.928;2023-07-29T15:13:10;30.50;63.30
6468;DHT22;3267;48.794;9.928;2023-07-29T15:15:35;31.10;63.20
6468;DHT22;3267;48.794;9.928;2023-07-29T15:18:01;31.30;61.20
6468;DHT22;3267;48.794;9.928;2023-07-29T15:20:27;31.30;60.50
6468;DHT22;3267;48.794;9.928;2023-07-29T15:22:52;31.20;60.70
6468;DHT22;3267;48.794;9.928;2023-07-29T15:25:18;31.00;60.40
6468;DHT22;3267;48.794;9.928;2023-07-29T15:27:44;30.80;59.40
6468;DHT22;3267;48.794;9.928;2023-07-29T15:30:09;30.60;61.10
6468;DHT22;3267;48.794;9.928;2023-07-29T15:32:37;30.50;61.90
6468;DHT22;3267;48.794;9.928;2023-07-29T15:35:03;30.30;61.40
6468;DHT22;3267;48.794;9.928;2023-07-29T15:37:28;30.20;62.90
6468;DHT22;3267;48.794;9.928;2023-07-29T15:39:54;30.00;62.40
6468;DHT22;3267;48.794;9.928;2023-07-29T15:42:20;29.90;61.00
6468;DHT22;3267;48.794;9.928;2023-07-29T15:44:46;29.70;61.30
6468;DHT22;3267;48.794;9.928;2023-07-29T15:47:12;29.60;61.10
6468;DHT22;3267;48.794;9.928;2023-07-29T15:49:41;29.50;62.00
6468;DHT22;3267;48.794;9.928;2023-07-29T15:52:07;29.20;61.00
6468;DHT22;3267;48.794;9.928;2023-07-29T16:19:02;31.90;55.70
6468;DHT22;3267;48.794;9.928;2023-07-29T16:43:33;30.70;58.20
6468;DHT22;3267;48.794;9.928;2023-07-29T18:45:48;25.80;68.20
6468;DHT22;3267;48.794;9.928;2023-07-29T18:58:01;25.30;67.90
6468;DHT22;3267;48.794;9.928;2023-07-29T19:17:48;24.70;89.40
6468;DHT22;3267;48.794;9.928;2023-07-29T19:27:34;24.60;68.60
6468;DHT22;3267;48.794;9.928;2023-07-29T19:30:01;24.60;68.70
6468;DHT22;3267;48.794;9.928;2023-07-29T19:37:25;24.40;69.00
6468;DHT22;3267;48.794;9.928;2023-07-29T19:42:20;24.40;68.80
6468;DHT22;3267;48.794;9.928;2023-07-29T19:52:09;24.30;69.00
6468;DHT22;3267;48.794;9.928;2023-07-29T19:54:35;24.20;69.90
6468;DHT22;3267;48.794;9.928;2023-07-29T19:57:01;24.20;68.90
6468;DHT22;3267;48.794;9.928;2023-07-29T19:59:26;24.20;69.50
6468;DHT22;3267;48.794;9.928;2023-07-29T20:01:52;24.20;70.00
6468;DHT22;3267;48.794;9.928;2023-07-29T20:04:18;24.10;69.60
6468;DHT22;3267;48.794;9.928;2023-07-29T20:06:45;24.00;70.10
6468;DHT22;3267;48.794;9.928;2023-07-29T20:09:10;24.00;70.30
6468;DHT22;3267;48.794;9.928;2023-07-29T20:11:37;23.90;70.20
6468;DHT22;3267;48.794;9.928;2023-07-29T20:14:03;23.90;70.00
6468;DHT22;3267;48.794;9.928;2023-07-29T20:16:29;23.90;70.00
6468;DHT22;3267;48.794;9.928;2023-07-29T20:18:55;23.90;70.00
6468;DHT22;3267;48.794;9.928;2023-07-29T20:21:21;23.90;70.40
6468;DHT22;3267;48.794;9.928;2023-07-29T20:23:47;23.90;69.90
6468;DHT22;3267;48.794;9.928;2023-07-29T20:26:14;23.80;70.20
6468;DHT22;3267;48.794;9.928;2023-07-29T20:28:41;23.80;70.10
6468;DHT22;3267;48.794;9.928;2023-07-29T20:31:07;23.80;70.20
6468;DHT22;3267;48.794;9.928;2023-07-29T20:33:33;23.70;70.00
6468;DHT22;3267;48.794;9.928;2023-07-29T20:35:59;23.80;69.90
6468;DHT22;3267;48.794;9.928;2023-07-29T20:38:25;23.70;70.40
6468;DHT22;3267;48.794;9.928;2023-07-29T20:40:51;23.60;70.00
6468;DHT22;3267;48.794;9.928;2023-07-29T20:43:17;23.60;70.60
6468;DHT22;3267;48.794;9.928;2023-07-29T20:45:43;23.50;70.40
6468;DHT22;3267;48.794;9.928;2023-07-29T20:48:09;23.50;70.50
6468;DHT22;3267;48.794;9.928;2023-07-29T20:50:41;23.60;70.80
6468;DHT22;3267;48.794;9.928;2023-07-29T20:53:08;23.40;70.30
6468;DHT22;3267;48.794;9.928;2023-07-29T20:55:34;24.50;71.50
6468;DHT22;3267;48.794;9.928;2023-07-29T20:58:00;25.60;72.70
